Time;durP1;ratioP1;P1;durP2;ratioP2;P2;SDS_P1;SDS_P2;PMS_P1;PMS_P2;Temp;Humidity;BMP_temperature;BMP_pressure;BME280_temperature;BME280_humidity;BME280_pressure;Samples;Min_cycle;Max_cycle;Signal;HPM_P1;HPM_P2
2023/04/26 00:01:16;;;;;;;9.23;1.40;;;;;;;3.05;100.00;100514.78;5006150;28;20269;-71
2023/04/26 00:03:41;;;;;;;8.27;2.42;;;;;;;3.03;100.00;100514.06;5004258;28;20120;-74
2023/04/26 00:06:08;;;;;;;7.47;1.83;;;;;;;3.11;100.00;100511.66;5005133;28;20494;-76
2023/04/26 00:08:35;;;;;;;12.07;3.08;;;;;;;3.03;100.00;100494.75;5005627;28;20034;-75
2023/04/26 00:11:00;;;;;;;;;;;;;;;3.10;100.00;100504.69;4988228;28;20057;-75
2023/04/26 00:13:25;;;;;;;11.85;1.70;;;;;;;3.02;100.00;100490.41;5004300;28;19913;-75
2023/04/26 00:15:51;;;;;;;11.07;2.13;;;;;;;2.95;100.00;100476.91;5004506;28;20665;-73
2023/04/26 00:18:19;;;;;;;6.57;2.33;;;;;;;2.93;100.00;100484.91;4988916;28;20045;-72
2023/04/26 00:20:45;;;;;;;8.20;2.08;;;;;;;2.95;100.00;100490.91;5009015;28;20033;-76
2023/04/26 00:23:10;;;;;;;6.38;1.35;;;;;;;2.94;100.00;100477.84;5009359;28;20849;-75
2023/04/26 00:25:36;;;;;;;6.77;2.07;;;;;;;2.85;100.00;100481.19;5009149;28;20030;-76
2023/04/26 00:28:02;;;;;;;10.65;2.85;;;;;;;2.90;100.00;100487.81;5007810;28;20399;-71
2023/04/26 00:30:27;;;;;;;10.05;1.92;;;;;;;2.86;100.00;100491.63;5007784;28;20033;-76
2023/04/26 00:32:52;;;;;;;7.27;1.43;;;;;;;2.88;100.00;100517.88;5007511;28;20037;-73
2023/04/26 00:35:18;;;;;;;10.40;2.10;;;;;;;2.99;100.00;100522.31;5007835;28;20036;-76
2023/04/26 00:37:44;;;;;;;9.07;2.10;;;;;;;3.02;100.00;100537.91;4991159;28;20103;-76
2023/04/26 00:40:10;;;;;;;11.55;2.13;;;;;;;2.92;100.00;100535.97;5008708;28;20737;-76
2023/04/26 00:42:37;;;;;;;8.70;1.90;;;;;;;2.82;100.00;100540.28;4991090;28;20061;-74
2023/04/26 00:45:03;;;;;;;13.95;1.83;;;;;;;2.85;100.00;100574.31;5007394;28;20037;-75
2023/04/26 00:47:28;;;;;;;11.68;2.13;;;;;;;2.76;100.00;100577.66;4991485;28;20440;-75
2023/04/26 00:49:54;;;;;;;7.03;1.90;;;;;;;2.84;100.00;100590.28;5007225;28;20041;-76
2023/04/26 00:52:21;;;;;;;15.95;2.20;;;;;;;2.77;100.00;100566.16;5009213;28;20022;-76
2023/04/26 00:54:48;;;;;;;13.30;2.08;;;;;;;2.85;100.00;100587.50;5006987;28;20030;-74
2023/04/26 00:57:13;;;;;;;8.88;2.10;;;;;;;2.81;100.00;100586.06;5006665;28;20144;-75
2023/04/26 00:59:38;;;;;;;7.35;1.70;;;;;;;2.75;100.00;100575.97;5000203;28;20467;-74
2023/04/26 01:02:04;;;;;;;3.93;1.50;;;;;;;2.74;100.00;100584.88;5008131;28;20530;-76
2023/04/26 01:04:30;;;;;;;7.05;1.90;;;;;;;2.71;100.00;100579.81;5004468;28;20331;-73
2023/04/26 01:06:55;;;;;;;5.13;1.88;;;;;;;2.70;100.00;100578.13;4974700;28;20116;-75
2023/04/26 01:09:21;;;;;;;10.25;2.17;;;;;;;2.73;100.00;100554.16;5006974;28;20056;-72
2023/04/26 01:11:47;;;;;;;17.60;2.93;;;;;;;2.74;100.00;100545.31;5007274;28;20096;-74
2023/04/26 01:14:14;;;;;;;6.80;2.53;;;;;;;2.75;100.00;100546.97;5006434;28;20356;-74
2023/04/26 01:16:39;;;;;;;13.68;2.30;;;;;;;2.61;100.00;100523.47;5008354;28;20026;-76
2023/04/26 01:19:12;;;;;;;11.40;1.85;;;;;;;2.56;100.00;100536.16;4990604;28;20199;-75
2023/04/26 01:21:39;;;;;;;9.88;2.45;;;;;;;2.59;100.00;100559.66;5006887;28;20038;-75
2023/04/26 01:24:05;;;;;;;11.20;1.70;;;;;;;2.56;100.00;100573.91;5006458;28;20038;-75
2023/04/26 01:26:31;;;;;;;8.88;2.00;;;;;;;2.45;100.00;100566.78;4990166;28;20022;-71
2023/04/26 01:28:57;;;;;;;10.70;2.00;;;;;;;2.49;100.00;100602.50;5023206;28;20396;-72
2023/04/26 01:31:23;;;;;;;6.57;2.88;;;;;;;2.47;100.00;100627.28;5006127;28;20038;-75
2023/04/26 01:33:48;;;;;;;11.43;1.55;;;;;;;2.43;100.00;100631.94;4990065;28;20041;-76
2023/04/26 01:36:13;;;;;;;7.00;2.17;;;;;;;2.49;100.00;100642.03;5006693;28;20069;-76
2023/04/26 01:38:39;;;;;;;12.30;2.05;;;;;;;2.56;100.00;100663.50;5006754;28;20483;-73
2023/04/26 01:41:04;;;;;;;12.80;2.33;;;;;;;2.61;100.00;100657.91;4990422;28;20043;-76
2023/04/26 01:43:30;;;;;;;6.88;2.33;;;;;;;2.65;100.00;100644.38;5006286;28;21141;-75
2023/04/26 01:45:56;;;;;;;10.63;2.72;;;;;;;2.60;100.00;100619.28;4990119;28;20046;-72
2023/04/26 01:48:28;;;;;;;10.68;2.35;;;;;;;2.63;100.00;100617.28;5006266;28;20037;-76
2023/04/26 01:50:53;;;;;;;9.52;2.20;;;;;;;2.57;100.00;100593.19;5006332;28;20056;-75
2023/04/26 01:53:18;;;;;;;11.43;2.63;;;;;;;2.59;100.00;100597.38;4999666;28;20044;-76
2023/04/26 01:55:44;;;;;;;5.07;2.00;;;;;;;2.48;100.00;100573.63;5006061;28;20281;-76
2023/04/26 01:58:09;;;;;;;4.63;1.50;;;;;;;2.48;100.00;100582.38;4989673;28;20124;-73
2023/04/26 02:00:36;;;;;;;13.20;2.60;;;;;;;2.58;100.00;100592.25;4989896;28;20099;-76
2023/04/26 02:03:02;;;;;;;12.15;2.13;;;;;;;2.53;100.00;100584.69;5005923;28;20088;-76
2023/04/26 02:05:28;;;;;;;11.88;2.42;;;;;;;2.40;100.00;100555.75;4989912;28;20040;-75
2023/04/26 02:07:54;;;;;;;7.90;1.50;;;;;;;2.56;100.00;100586.25;4984765;28;20038;-74
2023/04/26 02:10:19;;;;;;;14.60;2.37;;;;;;;2.48;100.00;100566.56;5001126;28;20120;-76
2023/04/26 02:12:44;;;;;;;10.43;1.93;;;;;;;2.33;100.00;100550.09;5002762;28;20131;-76
2023/04/26 02:15:10;;;;;;;8.90;1.90;;;;;;;2.39;100.00;100564.63;5005877;28;20018;-75
2023/04/26 02:17:36;;;;;;;12.88;2.60;;;;;;;2.46;100.00;100568.47;5006011;28;20276;-75
2023/04/26 02:20:02;;;;;;;;;;;;;;;2.53;100.00;100564.44;5005998;28;20069;-72
2023/04/26 02:22:28;;;;;;;9.82;1.63;;;;;;;2.50;100.00;100537.44;5007192;28;20290;-75
2023/04/26 02:24:53;;;;;;;15.13;2.90;;;;;;;2.50;100.00;100537.44;5003693;28;20089;-76
2023/04/26 02:27:19;;;;;;;6.43;1.83;;;;;;;2.32;100.00;100501.00;5005947;28;20028;-76
2023/04/26 02:29:45;;;;;;;10.43;2.00;;;;;;;2.36;100.00;100504.22;5017020;28;20101;-75
2023/04/26 02:32:12;;;;;;;7.20;1.83;;;;;;;2.36;100.00;100500.75;5005397;28;20064;-73
2023/04/26 02:34:38;;;;;;;6.45;1.60;;;;;;;2.22;100.00;100488.63;5001635;28;20764;-75
2023/04/26 02:37:03;;;;;;;5.60;2.17;;;;;;;2.23;100.00;100508.75;4988898;28;20168;-76
2023/04/26 02:39:30;;;;;;;10.45;1.90;;;;;;;2.15;100.00;100516.38;5005184;28;20030;-76
2023/04/26 02:41:56;;;;;;;8.98;2.47;;;;;;;2.11;100.00;100513.97;4987946;28;20022;-74
2023/04/26 02:44:21;;;;;;;16.08;2.55;;;;;;;2.05;100.00;100514.44;4988446;28;20088;-75
2023/04/26 02:46:47;;;;;;;9.53;1.80;;;;;;;2.22;100.00;100544.78;5002250;28;20508;-75
2023/04/26 02:49:12;;;;;;;9.82;2.13;;;;;;;2.16;100.00;100529.44;4988723;28;20053;-75
2023/04/26 02:51:38;;;;;;;18.52;4.10;;;;;;;2.24;100.00;100536.75;5005439;28;20038;-76
2023/04/26 02:54:03;;;;;;;8.00;2.40;;;;;;;2.23;100.00;100521.94;5004780;28;20017;-75
2023/04/26 02:56:30;;;;;;;5.80;2.28;;;;;;;2.32;100.00;100551.06;5021547;28;20285;-75
2023/04/26 02:58:55;;;;;;;11.32;2.53;;;;;;;2.41;100.00;100561.84;4988286;28;20033;-75
2023/04/26 03:01:21;;;;;;;6.72;2.47;;;;;;;2.29;100.00;100521.47;5005215;28;20034;-72
2023/04/26 03:03:46;;;;;;;6.32;2.05;;;;;;;2.35;100.00;100534.19;5004708;28;20041;-74
2023/04/26 03:06:12;;;;;;;11.77;2.03;;;;;;;2.38;100.00;100549.75;5005095;28;20052;-76
2023/04/26 03:08:37;;;;;;;9.53;1.83;;;;;;;2.44;100.00;100562.47;4988115;28;20040;-74
2023/04/26 03:11:03;;;;;;;23.35;3.38;;;;;;;2.43;100.00;100552.88;4988747;28;20184;-76
2023/04/26 03:13:28;;;;;;;9.95;2.55;;;;;;;2.42;100.00;100547.75;5004623;28;20120;-74
2023/04/26 03:15:55;;;;;;;7.45;2.15;;;;;;;2.39;100.00;100542.69;5004975;28;20034;-76
2023/04/26 03:18:21;;;;;;;11.27;2.22;;;;;;;2.27;100.00;100544.44;5004522;28;20072;-72
2023/04/26 03:20:47;;;;;;;10.32;3.22;;;;;;;2.34;100.00;100564.09;5004655;28;20029;-75
2023/04/26 03:23:13;;;;;;;13.68;2.72;;;;;;;2.29;100.00;100550.44;5004565;28;20030;-75
2023/04/26 03:25:38;;;;;;;7.18;2.03;;;;;;;2.29;100.00;100561.84;4988348;28;20080;-76
2023/04/26 03:28:04;;;;;;;12.82;3.20;;;;;;;2.26;100.00;100561.22;5004444;28;20124;-74
2023/04/26 03:30:30;;;;;;;14.18;2.28;;;;;;;2.15;100.00;100554.09;4985310;28;20391;-75
2023/04/26 03:32:56;;;;;;;16.67;3.95;;;;;;;2.10;100.00;100562.31;5002771;28;20069;-72
2023/04/26 03:35:21;;;;;;;12.18;3.15;;;;;;;2.02;100.00;100572.59;5004718;28;20541;-75
2023/04/26 03:37:47;;;;;;;5.95;1.90;;;;;;;2.03;100.00;100586.59;4988013;28;20042;-74
2023/04/26 03:40:13;;;;;;;8.30;2.22;;;;;;;1.99;100.00;100590.38;5004726;28;20028;-74
2023/04/26 03:42:38;;;;;;;9.23;2.03;;;;;;;2.01;100.00;100596.41;4988076;28;20030;-75
2023/04/26 03:45:04;;;;;;;10.40;2.63;;;;;;;2.14;100.00;100609.53;4988073;28;20034;-76
2023/04/26 03:47:30;;;;;;;4.82;1.80;;;;;;;2.20;100.00;100598.53;4984817;28;20104;-76
2023/04/26 03:49:56;;;;;;;6.88;1.90;;;;;;;2.16;100.00;100584.75;5002643;28;20065;-73
2023/04/26 03:52:21;;;;;;;11.15;2.85;;;;;;;2.07;100.00;100575.72;4986395;28;20061;-75
2023/04/26 03:54:47;;;;;;;11.20;2.03;;;;;;;2.06;100.00;100576.69;5002313;28;20050;-75
2023/04/26 03:57:12;;;;;;;13.63;3.30;;;;;;;1.99;100.00;100580.72;5008347;28;20044;-76
2023/04/26 03:59:38;;;;;;;16.23;3.05;;;;;;;2.02;100.00;100591.03;5008459;28;20025;-76
2023/04/26 04:02:04;;;;;;;19.17;3.17;;;;;;;2.04;100.00;100610.19;5008313;28;20520;-76
2023/04/26 04:04:30;;;;;;;15.63;3.33;;;;;;;2.03;100.00;100618.19;4991792;28;20034;-76
2023/04/26 04:06:55;;;;;;;13.10;2.75;;;;;;;2.01;100.00;100630.63;5008049;28;20972;-74
2023/04/26 04:09:21;;;;;;;9.63;2.70;;;;;;;2.10;100.00;100654.50;4991734;28;20038;-72
2023/04/26 04:11:46;;;;;;;9.75;1.75;;;;;;;2.14;100.00;100656.94;4991927;28;20498;-75
2023/04/26 04:14:12;;;;;;;8.73;2.08;;;;;;;2.25;100.00;100678.09;5009072;28;20022;-75
2023/04/26 04:16:37;;;;;;;8.80;3.00;;;;;;;2.29;100.00;100692.69;5007979;28;20181;-73
2023/04/26 04:19:03;;;;;;;9.97;2.07;;;;;;;2.37;100.00;100706.19;5007590;28;20260;-76
2023/04/26 04:21:29;;;;;;;15.40;2.15;;;;;;;2.39;100.00;100695.50;5008008;28;20029;-75
2023/04/26 04:23:56;;;;;;;8.50;2.47;;;;;;;2.41;100.00;100694.47;4991462;28;20037;-75
2023/04/26 04:26:22;;;;;;;12.53;3.27;;;;;;;2.47;100.00;100695.81;5008095;28;20041;-76
2023/04/26 04:28:47;;;;;;;12.00;3.43;;;;;;;2.65;100.00;100715.56;5007674;28;20281;-74
2023/04/26 04:31:13;;;;;;;10.05;1.95;;;;;;;2.72;100.00;100708.88;4991373;28;20284;-75
2023/04/26 04:33:39;;;;;;;12.55;2.70;;;;;;;2.73;100.00;100709.72;5007554;28;20034;-75
2023/04/26 04:36:05;;;;;;;14.57;2.53;;;;;;;2.85;100.00;100721.97;5007473;28;20080;-75
2023/04/26 04:38:31;;;;;;;7.40;2.20;;;;;;;2.81;100.00;100714.41;4990990;28;20491;-74
2023/04/26 04:40:57;;;;;;;9.90;2.72;;;;;;;2.90;100.00;100717.22;5007560;28;20038;-75
2023/04/26 04:43:23;;;;;;;11.10;2.95;;;;;;;2.92;100.00;100715.28;5002979;28;20109;-75
2023/04/26 04:45:48;;;;;;;12.88;3.03;;;;;;;3.01;100.00;100712.94;5005282;28;20038;-75
2023/04/26 04:48:14;;;;;;;9.32;2.97;;;;;;;2.98;100.00;100681.53;4985558;28;20491;-72
2023/04/26 04:50:43;;;;;;;20.85;2.75;;;;;;;3.02;100.00;100688.22;5011364;28;20623;-76
2023/04/26 04:53:09;;;;;;;16.77;4.05;;;;;;;3.01;100.00;100684.75;5006925;28;20064;-75
2023/04/26 04:55:35;;;;;;;12.85;2.58;;;;;;;3.01;100.00;100673.38;4990703;28;20333;-75
2023/04/26 04:58:02;;;;;;;8.35;3.25;;;;;;;3.05;100.00;100680.13;5006476;28;20116;-73
2023/04/26 05:00:28;;;;;;;11.80;3.08;;;;;;;3.11;100.00;100679.63;5001201;28;20421;-76
2023/04/26 05:03:13;;;;;;;13.47;3.07;;;;;;;3.33;100.00;100690.25;5000705;28;20099;-74
2023/04/26 05:05:39;;;;;;;12.05;2.42;;;;;;;3.73;100.00;100697.72;5005827;28;20038;-75
2023/04/26 05:08:08;;;;;;;9.55;3.10;;;;;;;4.27;100.00;100676.81;4990241;28;20060;-75
2023/04/26 05:10:34;;;;;;;19.73;2.53;;;;;;;4.90;100.00;100608.16;5006972;28;20118;-75
2023/04/26 05:13:00;;;;;;;11.45;2.90;;;;;;;5.54;100.00;100496.72;5005742;28;20469;-75
2023/04/26 05:15:25;;;;;;;7.50;2.05;;;;;;;6.23;100.00;100403.06;5004691;28;20034;-72
2023/04/26 05:17:51;;;;;;;12.83;2.60;;;;;;;6.53;100.00;100187.16;4989791;28;20495;-71
2023/04/26 05:20:21;;;;;;;8.48;2.53;;;;;;;6.86;100.00;100048.66;4982359;28;20026;-76
2023/04/26 05:22:47;;;;;;;8.00;2.35;;;;;;;7.75;100.00;99986.31;4981034;28;20026;-75
2023/04/26 05:25:12;;;;;;;8.50;2.27;;;;;;;8.08;100.00;99741.78;4989145;28;20367;-76
2023/04/26 05:27:38;;;;;;;;;;;;;;;8.64;100.00;99642.34;5010635;28;20060;-76
2023/04/26 05:30:24;;;;;;;4.22;1.65;;;;;;;8.50;100.00;99478.19;5002481;28;20345;-76
2023/04/26 05:33:24;;;;;;;7.85;1.98;;;;;;;8.54;100.00;99311.84;4942908;28;20428;-73
2023/04/26 05:35:56;;;;;;;11.30;2.22;;;;;;;8.15;100.00;99107.41;4999152;28;20057;-74
2023/04/26 05:38:23;;;;;;;9.75;2.20;;;;;;;8.32;100.00;99244.44;4999561;28;20069;-75
2023/04/26 05:40:49;;;;;;;8.63;1.98;;;;;;;8.47;100.00;99113.31;4988872;28;20026;-75
2023/04/26 05:43:15;;;;;;;11.80;2.70;;;;;;;8.42;100.00;98972.91;5004472;28;20034;-76
2023/04/26 05:46:10;;;;;;;7.38;2.17;;;;;;;8.75;100.00;99074.28;4980667;28;20050;-74
2023/04/26 05:48:36;;;;;;;9.32;2.13;;;;;;;9.21;100.00;99076.50;4976140;28;20042;-72
2023/04/26 05:51:01;;;;;;;7.53;1.77;;;;;;;9.23;100.00;98921.88;4995172;28;20037;-75
2023/04/26 05:53:27;;;;;;;7.93;2.15;;;;;;;8.96;100.00;98894.28;4994881;28;20495;-75
2023/04/26 05:55:52;;;;;;;5.13;1.60;;;;;;;9.45;100.00;98968.66;5010973;28;20034;-74
2023/04/26 05:58:18;;;;;;;7.22;1.50;;;;;;;10.04;100.00;98977.03;5004188;28;20041;-76
2023/04/26 06:00:46;;;;;;;7.78;2.00;;;;;;;9.97;98.41;98699.78;5010093;28;20028;-75
2023/04/26 06:03:12;;;;;;;6.00;1.57;;;;;;;9.42;97.15;98558.88;5004983;28;20092;-76
2023/04/26 06:05:37;;;;;;;7.53;2.00;;;;;;;9.48;98.49;98765.00;5009583;28;20113;-74
2023/04/26 06:08:04;;;;;;;5.07;1.73;;;;;;;9.59;97.59;98783.03;4979860;28;20658;-75
2023/04/26 06:10:29;;;;;;;8.25;2.35;;;;;;;9.44;97.36;98790.41;4993772;28;20506;-76
2023/04/26 06:12:54;;;;;;;9.43;1.67;;;;;;;9.80;96.28;98778.53;5010746;28;20038;-76
2023/04/26 06:15:21;;;;;;;;;;;;;;;9.84;95.17;98750.47;4979089;28;20025;-72
2023/04/26 06:17:46;;;;;;;14.60;2.83;;;;;;;9.81;93.10;98637.09;4997349;28;20283;-76
2023/04/26 06:20:11;;;;;;;6.27;1.80;;;;;;;10.29;93.57;98841.28;4987728;28;20517;-72
2023/04/26 06:22:38;;;;;;;;;;;;;;;11.09;90.96;98793.00;5009453;28;20046;-76
2023/04/26 06:25:04;;;;;;;10.00;2.58;;;;;;;11.18;88.06;98535.31;4995733;28;19913;-75
2023/04/26 06:27:30;;;;;;;;;;;;;;;10.60;87.61;98399.53;5004892;28;20039;-75
2023/04/26 06:29:55;;;;;;;8.60;2.05;;;;;;;10.66;85.03;98242.03;5004606;28;19925;-74
2023/04/26 06:32:22;;;;;;;14.55;3.03;;;;;;;10.62;85.35;98342.22;4999010;28;20030;-75
2023/04/26 06:34:47;;;;;;;10.07;2.30;;;;;;;10.49;84.82;98313.84;4979559;28;20070;-76
2023/04/26 06:37:13;;;;;;;11.57;3.22;;;;;;;10.50;83.36;98237.28;4987832;28;20908;-76
2023/04/26 06:39:41;;;;;;;11.48;3.30;;;;;;;10.40;83.17;98271.69;4979733;28;20026;-76
2023/04/26 06:42:06;;;;;;;7.37;2.07;;;;;;;10.74;82.44;98350.31;4995560;28;20136;-76
2023/04/26 06:44:50;;;;;;;8.48;2.33;;;;;;;10.95;81.62;98309.00;4994287;28;20092;-71
2023/04/26 06:47:16;;;;;;;12.70;2.77;;;;;;;11.11;81.04;98395.72;5003376;28;20029;-73
2023/04/26 06:49:41;;;;;;;9.33;2.43;;;;;;;10.64;79.25;98067.19;4993271;28;20034;-76
2023/04/26 06:52:07;;;;;;;7.07;2.17;;;;;;;10.38;77.69;97935.84;5011956;28;20418;-76
2023/04/26 06:54:32;;;;;;;13.13;2.53;;;;;;;10.43;77.70;98042.66;4999599;28;20120;-74
2023/04/26 06:56:58;;;;;;;11.07;2.88;;;;;;;9.79;77.62;97924.19;4979210;28;20137;-74
2023/04/26 06:59:23;;;;;;;13.33;2.77;;;;;;;9.63;77.01;97902.47;4982114;28;20092;-76
2023/04/26 07:01:48;;;;;;;10.93;2.10;;;;;;;10.19;77.92;98227.56;4996832;28;20038;-75
2023/04/26 07:04:16;;;;;;;10.33;2.67;;;;;;;9.36;76.50;97879.88;5003499;28;20471;-76
2023/04/26 07:06:42;;;;;;;9.50;2.63;;;;;;;9.29;77.53;98032.56;4993469;28;20022;-72
2023/04/26 07:09:07;;;;;;;10.40;2.33;;;;;;;9.78;77.72;98279.59;4995258;28;20030;-76
2023/04/26 07:11:33;;;;;;;10.17;2.37;;;;;;;10.61;77.00;98401.16;4999677;28;20076;-75
2023/04/26 07:13:58;;;;;;;5.63;2.10;;;;;;;10.53;73.66;97936.19;4995753;28;20042;-75
2023/04/26 07:16:23;;;;;;;6.97;2.23;;;;;;;10.23;72.99;97868.78;4994552;28;20088;-76
2023/04/26 07:18:50;;;;;;;11.40;2.83;;;;;;;10.19;73.29;97857.78;5013264;28;20029;-75
2023/04/26 07:21:15;;;;;;;11.90;2.67;;;;;;;9.62;73.98;97879.53;5011025;28;20521;-74
2023/04/26 07:23:40;;;;;;;21.70;3.40;;;;;;;9.61;75.05;98074.22;5007740;28;20038;-73
2023/04/26 07:26:06;;;;;;;8.87;2.43;;;;;;;9.84;73.65;98042.38;4995964;28;20068;-76
2023/04/26 07:28:32;;;;;;;8.52;2.15;;;;;;;10.08;74.85;98280.56;4996859;28;20431;-75
2023/04/26 07:30:59;;;;;;;9.63;2.15;;;;;;;9.89;72.98;97980.41;4993615;28;20068;-76
2023/04/26 07:33:24;;;;;;;8.85;2.17;;;;;;;9.67;73.24;97986.22;4994116;28;20452;-76
2023/04/26 07:35:58;;;;;;;10.00;2.33;;;;;;;9.99;71.82;97930.03;4997078;28;20471;-76
2023/04/26 07:38:24;;;;;;;13.85;3.03;;;;;;;10.26;71.40;97973.13;5000832;28;20096;-73
2023/04/26 07:40:50;;;;;;;10.10;3.15;;;;;;;10.81;71.35;98156.22;5003608;28;20030;-74
2023/04/26 07:43:16;;;;;;;7.50;2.10;;;;;;;10.67;70.02;97914.63;5002328;28;20141;-73
2023/04/26 07:45:41;;;;;;;7.82;2.47;;;;;;;9.94;70.56;97815.31;4978630;28;20133;-75
2023/04/26 07:48:07;;;;;;;6.50;2.90;;;;;;;9.49;70.22;97712.75;5003459;28;20124;-75
2023/04/26 07:50:32;;;;;;;6.63;2.13;;;;;;;9.32;69.73;97652.41;4982682;28;20041;-75
2023/04/26 07:52:58;;;;;;;7.65;2.45;;;;;;;9.66;70.11;97846.06;4995942;28;20041;-75
2023/04/26 07:55:23;;;;;;;11.67;2.63;;;;;;;10.23;70.95;98180.72;4994008;28;20038;-75
2023/04/26 07:57:49;;;;;;;14.52;2.80;;;;;;;9.57;69.81;97772.84;4993679;28;20156;-75
2023/04/26 08:00:17;;;;;;;5.50;2.33;;;;;;;9.48;70.22;97870.09;5002859;28;20301;-76
2023/04/26 08:02:45;;;;;;;13.25;2.72;;;;;;;10.50;71.00;98339.47;5007760;28;20027;-75
2023/04/26 08:05:11;;;;;;;11.35;2.90;;;;;;;11.42;69.56;98389.34;4995679;28;20049;-74
2023/04/26 08:07:37;;;;;;;9.38;2.15;;;;;;;10.57;68.69;97928.56;4992750;28;20476;-77
2023/04/26 08:10:02;;;;;;;14.77;2.50;;;;;;;9.71;68.57;97720.97;4994320;28;20050;-76
2023/04/26 08:12:28;;;;;;;10.70;2.80;;;;;;;9.18;69.35;97713.84;4981949;28;20030;-77
2023/04/26 08:14:53;;;;;;;6.70;2.03;;;;;;;8.33;69.23;97472.81;4994155;28;20758;-76
2023/04/26 08:17:18;;;;;;;8.23;2.13;;;;;;;8.25;69.39;97543.06;5002301;28;20456;-76
2023/04/26 08:19:44;;;;;;;5.10;2.17;;;;;;;8.93;68.88;97766.41;5011964;28;20045;-75
2023/04/26 08:22:09;;;;;;;12.37;2.43;;;;;;;9.89;69.09;98132.31;4996119;28;20091;-76
2023/04/26 08:24:34;;;;;;;11.17;3.20;;;;;;;10.32;70.88;98454.13;4990952;28;20065;-76
2023/04/26 08:27:00;;;;;;;4.77;1.83;;;;;;;10.61;71.63;98630.66;4994813;28;20304;-75
2023/04/26 08:29:26;;;;;;;22.43;3.87;;;;;;;10.39;71.21;98387.41;4981237;28;20469;-73
2023/04/26 08:31:52;;;;;;;7.50;2.22;;;;;;;9.70;69.41;98009.75;5000252;28;20026;-76
2023/04/26 08:34:17;;;;;;;10.57;2.10;;;;;;;9.22;70.46;98039.75;4986620;28;20034;-75
2023/04/26 08:36:43;;;;;;;9.03;3.13;;;;;;;9.25;71.48;98232.88;5000105;28;20037;-76
2023/04/26 08:39:08;;;;;;;10.02;3.08;;;;;;;9.00;72.15;98286.06;5003942;28;20519;-77
2023/04/26 08:41:49;;;;;;;8.50;2.43;;;;;;;10.41;72.84;98895.66;5002479;28;20376;-76
2023/04/26 08:44:14;;;;;;;10.38;2.15;;;;;;;10.73;70.77;98624.41;4995464;28;20120;-76
2023/04/26 08:46:50;;;;;;;9.35;2.38;;;;;;;11.40;69.03;98563.25;5011375;28;20657;-75
2023/04/26 08:49:24;;;;;;;7.22;1.88;;;;;;;11.99;67.06;98451.34;4996476;28;20077;-73
2023/04/26 08:51:50;;;;;;;4.68;1.90;;;;;;;12.01;65.47;98186.34;4996905;28;20027;-76
2023/04/26 08:54:18;;;;;;;4.25;1.67;;;;;;;12.81;63.87;98228.44;4998708;28;20096;-73
2023/04/26 08:56:44;;;;;;;6.35;2.33;;;;;;;12.59;62.03;97861.56;5014117;28;20038;-77
2023/04/26 08:59:10;;;;;;;;;;;;;;;12.26;61.47;97653.78;4999063;28;20585;-73
2023/04/26 09:01:38;;;;;;;5.78;2.35;;;;;;;11.88;61.53;97587.81;5010427;28;19957;-74
2023/04/26 09:04:04;;;;;;;4.82;1.70;;;;;;;11.04;61.85;97303.06;4980675;28;20291;-75
2023/04/26 09:06:31;;;;;;;5.57;1.98;;;;;;;10.53;62.91;97384.03;5001389;28;20033;-75
2023/04/26 09:08:57;;;;;;;3.47;1.85;;;;;;;10.89;64.39;97810.78;5005940;28;20361;-76
2023/04/26 09:11:23;;;;;;;8.48;2.10;;;;;;;10.33;63.58;97562.41;5014174;28;20036;-77
2023/04/26 09:13:48;;;;;;;9.10;1.73;;;;;;;9.65;64.15;97396.97;5003957;28;20034;-73
2023/04/26 09:16:14;;;;;;;10.30;2.10;;;;;;;10.32;65.79;98014.94;5005641;28;20399;-76
2023/04/26 09:18:53;;;;;;;9.53;3.20;;;;;;;11.10;64.41;98069.13;4977791;28;20048;-75
2023/04/26 09:21:19;;;;;;;4.93;1.58;;;;;;;11.34;62.71;97840.22;4999407;28;20029;-74
2023/04/26 09:24:03;;;;;;;8.23;1.73;;;;;;;12.18;63.19;98194.50;5010433;28;20048;-77
2023/04/26 09:26:29;;;;;;;8.30;2.28;;;;;;;10.91;63.88;97789.97;5003590;28;20391;-77
2023/04/26 09:29:11;;;;;;;5.00;1.52;;;;;;;10.52;65.47;97993.28;4986132;28;20425;-74
2023/04/26 09:31:45;;;;;;;6.25;1.73;;;;;;;12.15;66.79;98808.31;5002414;28;20038;-74
2023/04/26 09:34:12;;;;;;;6.28;1.80;;;;;;;12.59;65.53;98685.97;5010909;28;20045;-74
2023/04/26 09:36:48;;;;;;;6.53;2.08;;;;;;;11.76;65.44;98299.66;4997474;28;20073;-77
2023/04/26 09:39:14;;;;;;;7.78;1.92;;;;;;;11.57;68.12;98715.81;5005234;28;20072;-76
2023/04/26 09:41:46;;;;;;;7.50;2.05;;;;;;;11.19;69.90;98798.69;4997514;28;20026;-75
2023/04/26 09:44:22;;;;;;;8.43;2.33;;;;;;;11.25;70.31;98856.59;4999041;28;20125;-74
2023/04/26 09:47:08;;;;;;;8.27;2.33;;;;;;;10.65;71.26;98787.47;5001840;28;20030;-74
2023/04/26 09:49:50;;;;;;;10.55;2.08;;;;;;;9.73;71.60;98555.50;4985668;28;20399;-76
2023/04/26 09:52:17;;;;;;;6.88;1.73;;;;;;;9.22;72.53;98564.22;4998361;28;20091;-75
2023/04/26 09:54:50;;;;;;;6.97;2.40;;;;;;;9.43;73.81;98928.06;5011738;28;20042;-76
2023/04/26 09:57:18;;;;;;;4.07;1.60;;;;;;;8.83;72.43;98512.69;5000123;28;20044;-75
2023/04/26 09:59:43;;;;;;;6.75;1.95;;;;;;;8.80;73.95;98747.25;4992991;28;20026;-76
2023/04/26 10:02:19;;;;;;;9.50;2.20;;;;;;;9.60;74.48;99082.25;5002665;28;20033;-77
2023/04/26 10:04:46;;;;;;;;;;;;;;;10.70;72.61;99203.16;4985574;28;20030;-76
2023/04/26 10:07:13;;;;;;;3.45;1.08;;;;;;;11.50;68.20;98799.75;4987895;28;19928;-76
2023/04/26 10:09:38;;;;;;;;;;;;;;;12.22;67.31;98872.44;4998574;28;20034;-75
2023/04/26 10:12:03;;;;;;;6.82;1.13;;;;;;;12.44;63.06;98265.41;4996841;28;19920;-76
2023/04/26 10:14:29;;;;;;;3.80;1.00;;;;;;;13.41;64.36;98770.38;5009692;28;20577;-74
2023/04/26 10:16:55;;;;;;;4.87;1.03;;;;;;;13.90;62.21;98564.50;5011024;28;20416;-76
2023/04/26 10:19:21;;;;;;;;;;;;;;;14.07;59.19;98100.44;4982739;28;20682;-76
2023/04/26 10:21:50;;;;;;;5.88;1.05;;;;;;;14.27;57.47;97888.69;5005034;28;19940;-76
2023/04/26 10:24:17;;;;;;;6.25;1.13;;;;;;;13.10;58.13;97621.19;5003836;28;20028;-73
2023/04/26 10:26:58;;;;;;;4.18;1.63;;;;;;;13.44;57.85;97764.88;4992566;28;20306;-75
2023/04/26 10:29:26;;;;;;;2.97;1.40;;;;;;;13.02;59.33;97865.38;5002638;28;20065;-75
2023/04/26 10:32:01;;;;;;;4.57;1.33;;;;;;;12.19;58.70;97479.31;5010253;28;20061;-76
2023/04/26 10:34:27;;;;;;;8.27;1.67;;;;;;;11.17;60.70;97468.22;5002042;28;20125;-76
2023/04/26 10:37:15;;;;;;;4.13;0.85;;;;;;;9.30;64.70;97517.69;4994986;28;20018;-76
2023/04/26 10:39:42;;;;;;;3.13;0.98;;;;;;;8.40;70.17;98171.94;4997336;28;20042;-75
2023/04/26 10:42:29;;;;;;;6.35;0.90;;;;;;;7.89;73.31;98601.25;5002606;28;20076;-75
2023/04/26 10:44:55;;;;;;;3.22;0.98;;;;;;;7.89;73.53;98683.63;5002297;28;20496;-76
2023/04/26 10:47:32;;;;;;;6.70;0.95;;;;;;;7.95;77.43;99190.38;5010873;28;20030;-72
2023/04/26 10:50:07;;;;;;;5.32;0.90;;;;;;;8.43;77.35;99333.63;4993595;28;20133;-75
2023/04/26 10:52:33;;;;;;;4.88;0.90;;;;;;;8.70;77.04;99395.16;4976076;28;20061;-75
2023/04/26 10:54:59;;;;;;;1.67;0.90;;;;;;;9.29;80.62;99874.53;4995346;28;20049;-75
2023/04/26 10:57:47;;;;;;;3.13;1.58;;;;;;;10.20;75.37;99506.59;4994970;28;20095;-74
2023/04/26 11:00:26;;;;;;;8.27;1.60;;;;;;;10.61;71.77;99070.97;4995257;28;20115;-75
2023/04/26 11:02:55;;;;;;;3.85;0.90;;;;;;;10.50;71.20;98933.63;4994471;28;20054;-75
2023/04/26 11:05:36;;;;;;;4.85;1.05;;;;;;;11.20;71.68;99191.16;4999517;28;20038;-74
2023/04/26 11:08:19;;;;;;;7.60;1.85;;;;;;;10.37;71.83;98925.59;5010645;28;20037;-73
2023/04/26 11:10:50;;;;;;;11.38;1.30;;;;;;;10.25;73.40;99147.56;5015146;28;20030;-76
2023/04/26 11:13:18;;;;;;;4.97;1.02;;;;;;;10.20;73.86;99203.34;4983989;28;20117;-74
2023/04/26 11:15:44;;;;;;;2.75;1.10;;;;;;;10.26;73.91;99225.75;5005989;28;20056;-76
2023/04/26 11:18:10;;;;;;;11.00;1.38;;;;;;;10.70;73.31;99260.06;5004615;28;20069;-76
2023/04/26 11:20:35;;;;;;;3.20;1.77;;;;;;;12.27;73.04;99671.88;5004844;28;20060;-73
2023/04/26 11:23:01;;;;;;;5.97;1.93;;;;;;;13.35;70.80;99674.59;4997050;28;20078;-74
2023/04/26 11:25:27;;;;;;;7.68;1.15;;;;;;;13.29;68.73;99275.00;4999088;28;20034;-74
2023/04/26 11:27:58;;;;;;;2.88;0.93;;;;;;;13.24;67.79;99083.72;4986368;28;20042;-76
2023/04/26 11:30:23;;;;;;;3.60;1.10;;;;;;;12.38;64.96;98410.81;4984735;28;20468;-76